createdAt,value
2017-09-29T00:00:58.649Z,85.13
2017-09-29T00:03:27.305Z,85.15
2017-09-29T00:05:55.949Z,85.06
2017-09-29T00:08:24.618Z,84.94
2017-09-29T00:10:53.299Z,84.91
2017-09-29T00:13:21.976Z,84.93
2017-09-29T00:15:50.590Z,84.98
2017-09-29T00:18:19.239Z,85.00
2017-09-29T00:20:47.915Z,85.08
2017-09-29T00:23:16.699Z,85.07
2017-09-29T00:25:45.302Z,85.12
2017-09-29T00:28:13.973Z,85.17
2017-09-29T00:30:42.635Z,85.35
2017-09-29T00:33:11.308Z,85.31
2017-09-29T00:35:40.668Z,85.34
2017-09-29T00:38:09.353Z,85.37
2017-09-29T00:40:37.818Z,85.40
2017-09-29T00:43:06.447Z,85.57
2017-09-29T00:45:34.789Z,85.42
2017-09-29T00:48:03.393Z,85.50
2017-09-29T00:50:32.082Z,85.48
2017-09-29T00:53:00.698Z,85.64
2017-09-29T00:55:29.386Z,85.46
2017-09-29T00:57:57.852Z,85.58
2017-09-29T01:00:26.239Z,85.71
2017-09-29T01:02:55.178Z,85.76
2017-09-29T01:05:23.809Z,85.50
2017-09-29T01:07:52.497Z,85.65
2017-09-29T01:10:21.130Z,85.44
2017-09-29T01:12:49.745Z,85.41
2017-09-29T01:15:18.137Z,85.43
2017-09-29T01:17:46.421Z,85.32
2017-09-29T01:20:14.848Z,85.30
2017-09-29T01:22:43.470Z,85.33
2017-09-29T01:25:12.119Z,85.28
2017-09-29T01:27:40.805Z,85.19
2017-09-29T01:30:09.463Z,85.21
2017-09-29T01:32:38.179Z,85.20
2017-09-29T01:35:06.811Z,85.13
2017-09-29T01:37:35.519Z,85.13
2017-09-29T01:40:04.174Z,85.15
2017-09-29T01:42:32.384Z,85.15
2017-09-29T01:45:00.550Z,85.10
2017-09-29T01:47:29.086Z,85.09
2017-09-29T01:49:57.721Z,85.09
2017-09-29T01:52:26.105Z,85.11
2017-09-29T01:54:54.441Z,85.09
2017-09-29T01:57:22.823Z,85.06
2017-09-29T01:59:51.179Z,85.05
2017-09-29T02:02:19.553Z,85.09
2017-09-29T02:04:47.856Z,85.10
2017-09-29T02:07:16.182Z,85.22
2017-09-29T02:09:44.540Z,85.23
2017-09-29T02:12:12.842Z,85.16
2017-09-29T02:14:41.578Z,85.31
2017-09-29T02:17:09.903Z,85.30
2017-09-29T02:19:38.241Z,85.27
2017-09-29T02:22:06.596Z,85.38
2017-09-29T02:24:35.334Z,85.39
2017-09-29T02:27:03.712Z,85.45
2017-09-29T02:29:32.117Z,85.39
2017-09-29T02:32:00.427Z,85.67
2017-09-29T02:34:28.782Z,85.35
2017-09-29T02:36:57.161Z,85.38
2017-09-29T02:39:25.522Z,85.27
2017-09-29T02:41:53.927Z,85.33
2017-09-29T02:44:22.590Z,85.52
2017-09-29T02:46:50.905Z,85.45
2017-09-29T02:49:19.266Z,85.60
2017-09-29T02:51:47.613Z,85.70
2017-09-29T02:54:15.974Z,85.59
2017-09-29T02:56:55.574Z,85.43
2017-09-29T02:59:28.515Z,85.40
2017-09-29T03:02:15.062Z,85.63
2017-09-29T03:04:48.710Z,85.74
2017-09-29T03:07:17.339Z,85.64
2017-09-29T03:09:46.029Z,85.63
2017-09-29T03:12:14.690Z,85.77
2017-09-29T03:14:43.344Z,85.67
2017-09-29T03:17:11.970Z,85.83
2017-09-29T03:19:40.625Z,85.65
2017-09-29T03:22:09.238Z,85.57
2017-09-29T03:24:37.925Z,85.75
2017-09-29T03:27:06.529Z,85.65
2017-09-29T03:29:37.663Z,85.50
2017-09-29T03:32:06.305Z,85.80
2017-09-29T03:34:34.957Z,85.56
2017-09-29T03:37:03.646Z,85.58
2017-09-29T03:39:32.259Z,85.48
2017-09-29T03:42:00.932Z,85.73
2017-09-29T03:44:29.605Z,85.79
2017-09-29T03:46:58.215Z,85.69
2017-09-29T03:49:26.873Z,85.87
2017-09-29T03:51:59.597Z,85.67
2017-09-29T03:54:31.371Z,85.85
2017-09-29T03:57:02.706Z,85.80
2017-09-29T03:59:31.367Z,85.67
2017-09-29T04:02:00.008Z,85.67
2017-09-29T04:04:28.621Z,85.82
2017-09-29T04:06:57.270Z,85.98
2017-09-29T04:09:25.880Z,86.02
2017-09-29T04:11:54.594Z,86.11
2017-09-29T04:14:23.208Z,86.01
2017-09-29T04:17:07.520Z,86.04
2017-09-29T04:19:46.537Z,85.92
2017-09-29T04:22:25.034Z,85.84
2017-09-29T04:25:05.749Z,85.95
2017-09-29T04:27:44.737Z,86.04
2017-09-29T04:30:20.120Z,86.04
2017-09-29T04:32:56.559Z,86.19
2017-09-29T04:35:32.421Z,85.98
2017-09-29T04:38:08.220Z,85.94
2017-09-29T04:40:46.360Z,86.17
2017-09-29T04:43:28.379Z,85.96
2017-09-29T04:46:10.004Z,85.92
2017-09-29T04:48:54.133Z,85.98
2017-09-29T04:51:35.174Z,86.08
2017-09-29T04:57:06.710Z,86.07
2017-09-29T04:59:51.297Z,86.19
2017-09-29T05:02:33.913Z,86.04
2017-09-29T05:05:19.201Z,86.00
2017-09-29T05:10:46.635Z,85.98
2017-09-29T05:13:26.624Z,86.18
2017-09-29T05:16:02.131Z,86.06
2017-09-29T05:18:36.666Z,86.15
2017-09-29T05:21:04.861Z,85.95
2017-09-29T05:23:33.640Z,86.05
2017-09-29T05:26:11.518Z,85.97
2017-09-29T05:28:51.350Z,86.06
2017-09-29T05:31:30.640Z,85.84
2017-09-29T05:34:09.870Z,86.23
2017-09-29T05:36:50.476Z,86.00
2017-09-29T05:39:27.662Z,85.98
2017-09-29T05:42:06.514Z,85.93
2017-09-29T05:44:44.357Z,85.92
2017-09-29T05:47:21.227Z,85.90
2017-09-29T05:50:00.185Z,85.90
2017-09-29T05:52:40.173Z,85.89
2017-09-29T05:55:16.174Z,85.85
2017-09-29T05:57:54.121Z,85.99
2017-09-29T06:00:33.125Z,86.02
2017-09-29T06:03:13.316Z,85.81
2017-09-29T06:05:55.168Z,85.91
2017-09-29T06:08:29.208Z,85.92
2017-09-29T06:11:03.786Z,86.04
2017-09-29T06:13:41.113Z,85.98
2017-09-29T06:16:15.322Z,85.90
2017-09-29T06:18:56.106Z,86.03
2017-09-29T06:21:33.008Z,85.93
2017-09-29T06:24:12.156Z,86.02
2017-09-29T06:26:49.968Z,86.00
2017-09-29T06:29:29.095Z,85.77
2017-09-29T06:32:05.827Z,85.85
2017-09-29T06:34:47.385Z,86.14
2017-09-29T06:37:27.380Z,86.15
2017-09-29T06:40:07.165Z,85.96
2017-09-29T06:42:44.823Z,85.97
2017-09-29T06:45:23.345Z,86.14
2017-09-29T06:48:01.097Z,86.28
2017-09-29T06:50:43.483Z,86.24
2017-09-29T06:53:20.555Z,86.16
2017-09-29T06:55:56.512Z,86.14
2017-09-29T06:58:37.529Z,86.22
2017-09-29T07:01:22.233Z,86.16
2017-09-29T07:04:02.975Z,86.32
2017-09-29T07:06:32.346Z,86.12
2017-09-29T07:09:01.287Z,86.00
2017-09-29T07:11:29.981Z,86.41
2017-09-29T07:13:58.608Z,86.21
2017-09-29T07:16:27.250Z,86.46
2017-09-29T07:19:07.281Z,86.11
2017-09-29T07:21:49.164Z,86.11
2017-09-29T07:24:32.592Z,86.54
2017-09-29T07:27:14.120Z,86.33
2017-09-29T07:29:46.472Z,86.45
2017-09-29T07:32:18.178Z,86.71
2017-09-29T07:34:46.793Z,86.75
2017-09-29T07:37:15.481Z,87.07
2017-09-29T07:39:44.134Z,86.70
2017-09-29T07:42:12.783Z,86.38
2017-09-29T07:44:41.470Z,86.37
2017-09-29T07:47:10.169Z,86.75
2017-09-29T07:49:38.784Z,86.76
2017-09-29T07:52:07.455Z,86.72
2017-09-29T07:54:39.851Z,86.49
2017-09-29T07:57:08.554Z,86.33
2017-09-29T07:59:37.201Z,88.10
2017-09-29T08:02:05.872Z,88.17
2017-09-29T08:04:34.480Z,87.15
2017-09-29T08:07:03.093Z,86.81
2017-09-29T08:09:31.772Z,86.55
2017-09-29T08:12:00.389Z,86.44
2017-09-29T08:14:30.220Z,86.36
2017-09-29T08:16:58.846Z,86.30
2017-09-29T08:19:27.548Z,86.15
2017-09-29T08:21:56.168Z,86.15
2017-09-29T08:24:24.859Z,86.28
2017-09-29T08:26:53.496Z,86.30
2017-09-29T08:29:22.154Z,86.16
2017-09-29T08:31:50.814Z,86.10
2017-09-29T08:34:19.474Z,86.27
2017-09-29T08:36:48.084Z,86.41
2017-09-29T08:39:16.562Z,86.39
2017-09-29T08:41:45.252Z,86.40
2017-09-29T08:44:13.866Z,86.17
2017-09-29T08:46:42.541Z,86.17
2017-09-29T08:49:11.162Z,86.17
2017-09-29T08:51:39.770Z,86.42
2017-09-29T08:54:08.428Z,86.28
2017-09-29T08:56:37.054Z,86.18
2017-09-29T08:59:05.729Z,86.13
2017-09-29T09:01:34.342Z,85.96
2017-09-29T09:04:02.995Z,85.95
2017-09-29T09:06:31.662Z,85.95
2017-09-29T09:09:00.274Z,85.86
2017-09-29T09:11:28.896Z,86.02
2017-09-29T09:13:57.549Z,86.05
2017-09-29T09:16:26.155Z,85.78
2017-09-29T09:18:54.818Z,86.04
2017-09-29T09:21:23.493Z,85.81
2017-09-29T09:23:52.138Z,86.05
2017-09-29T09:26:20.810Z,86.09
2017-09-29T09:28:49.436Z,86.07
2017-09-29T09:31:18.112Z,86.45
2017-09-29T09:33:46.787Z,86.21
2017-09-29T09:36:15.454Z,86.11
2017-09-29T09:38:44.053Z,86.24
2017-09-29T09:41:12.720Z,85.96
2017-09-29T09:43:41.339Z,85.98
2017-09-29T09:46:09.974Z,86.40
2017-09-29T09:48:38.525Z,86.27
2017-09-29T09:51:07.136Z,86.33
2017-09-29T09:53:35.800Z,86.47
2017-09-29T09:56:04.421Z,86.03
2017-09-29T09:58:35.434Z,85.93
2017-09-29T10:01:04.129Z,86.02
2017-09-29T10:03:32.767Z,86.00
2017-09-29T10:06:01.374Z,86.10
2017-09-29T10:08:32.968Z,85.91
2017-09-29T10:11:01.588Z,86.02
2017-09-29T10:13:30.261Z,86.19
2017-09-29T10:15:58.878Z,86.11
2017-09-29T10:18:27.497Z,86.12
2017-09-29T10:20:56.150Z,85.75
2017-09-29T10:23:24.798Z,85.80
2017-09-29T10:25:53.418Z,85.93
2017-09-29T10:28:22.078Z,86.03
2017-09-29T10:30:50.733Z,85.94
2017-09-29T10:33:19.398Z,86.04
2017-09-29T10:35:48.013Z,85.92
2017-09-29T10:38:16.619Z,85.94
2017-09-29T10:40:45.269Z,85.61
2017-09-29T10:43:14.098Z,85.72
2017-09-29T10:45:42.746Z,85.68
2017-09-29T10:48:11.350Z,85.83
2017-09-29T10:50:40.001Z,85.76
2017-09-29T10:53:08.627Z,85.83
2017-09-29T10:55:37.280Z,85.61
2017-09-29T10:58:05.775Z,85.49
2017-09-29T11:00:34.441Z,85.49
2017-09-29T11:03:03.058Z,85.67
2017-09-29T11:05:31.679Z,85.40
2017-09-29T11:08:00.349Z,85.57
2017-09-29T11:10:28.958Z,85.68
2017-09-29T11:12:57.637Z,85.70
2017-09-29T11:15:26.281Z,85.57
2017-09-29T11:17:54.913Z,85.36
2017-09-29T11:20:23.597Z,85.49
2017-09-29T11:22:52.215Z,85.62
2017-09-29T11:25:20.869Z,85.67
2017-09-29T11:27:49.550Z,85.56
2017-09-29T11:30:18.222Z,85.60
2017-09-29T11:32:46.918Z,85.58
2017-09-29T11:35:15.538Z,85.70
2017-09-29T11:37:44.161Z,85.52
2017-09-29T11:40:12.817Z,85.53
2017-09-29T11:42:41.425Z,85.45
2017-09-29T11:45:10.090Z,85.43
2017-09-29T11:47:38.704Z,85.57
2017-09-29T11:50:07.354Z,85.40
2017-09-29T11:52:36.029Z,85.40
2017-09-29T11:55:04.638Z,85.38
2017-09-29T11:57:33.244Z,85.09
2017-09-29T12:00:02.118Z,85.13
2017-09-29T12:02:30.743Z,85.26
2017-09-29T12:04:59.398Z,85.35
2017-09-29T12:07:28.019Z,85.34
2017-09-29T12:09:56.685Z,85.28
2017-09-29T12:12:25.336Z,85.26
2017-09-29T12:14:53.989Z,85.40
2017-09-29T12:17:22.618Z,85.26
2017-09-29T12:19:51.235Z,85.26
2017-09-29T12:22:19.899Z,85.19
2017-09-29T12:24:48.531Z,85.04
2017-09-29T12:27:17.209Z,85.03
2017-09-29T12:29:45.855Z,85.24
2017-09-29T12:32:14.217Z,85.00
2017-09-29T12:34:42.876Z,85.17
2017-09-29T12:37:11.490Z,85.15
2017-09-29T12:39:40.183Z,85.19
2017-09-29T12:42:08.886Z,84.97
2017-09-29T12:44:37.510Z,84.85
2017-09-29T12:47:06.201Z,84.89
2017-09-29T12:49:34.839Z,84.76
2017-09-29T12:52:03.524Z,84.82
2017-09-29T12:54:32.214Z,84.81
2017-09-29T12:57:00.877Z,84.68
2017-09-29T12:59:29.502Z,84.58
2017-09-29T13:01:58.153Z,84.68
2017-09-29T13:04:26.785Z,84.59
2017-09-29T13:06:55.501Z,84.59
2017-09-29T13:09:23.998Z,84.43
2017-09-29T13:11:52.652Z,84.49
2017-09-29T13:14:21.283Z,84.32
2017-09-29T13:16:49.948Z,84.28
2017-09-29T13:19:18.613Z,84.41
2017-09-29T13:21:47.215Z,84.27
2017-09-29T13:24:15.882Z,83.94
2017-09-29T13:26:44.554Z,83.93
2017-09-29T13:29:13.166Z,83.95
2017-09-29T13:31:41.830Z,83.96
2017-09-29T13:34:10.446Z,83.63
2017-09-29T13:36:39.060Z,83.57
2017-09-29T13:39:07.714Z,83.70
2017-09-29T13:41:36.340Z,83.78
2017-09-29T13:44:05.082Z,83.67
2017-09-29T13:46:33.698Z,83.59
2017-09-29T13:49:02.304Z,83.53
2017-09-29T13:51:30.988Z,83.57
2017-09-29T13:53:59.661Z,83.59
2017-09-29T13:56:28.337Z,83.07
2017-09-29T13:58:57.024Z,83.03
2017-09-29T14:01:25.628Z,83.05
2017-09-29T14:03:54.281Z,82.99
2017-09-29T14:06:22.903Z,82.99
2017-09-29T14:08:51.557Z,83.12
2017-09-29T14:11:20.210Z,82.85
2017-09-29T14:13:48.821Z,82.79
2017-09-29T14:16:17.431Z,82.83
2017-09-29T14:18:46.261Z,82.79
2017-09-29T14:21:14.881Z,82.69
2017-09-29T14:23:43.599Z,82.44
2017-09-29T14:26:12.216Z,82.46
2017-09-29T14:28:40.831Z,82.66
2017-09-29T14:31:09.486Z,82.59
2017-09-29T14:33:38.124Z,82.65
2017-09-29T14:36:06.778Z,82.43
2017-09-29T14:38:36.410Z,82.77
2017-09-29T14:41:05.091Z,82.27
2017-09-29T14:43:33.753Z,82.47
2017-09-29T14:46:02.424Z,82.21
2017-09-29T14:48:34.865Z,81.97
2017-09-29T14:51:03.521Z,82.19
2017-09-29T14:53:32.133Z,82.22
2017-09-29T14:56:00.763Z,81.79
2017-09-29T14:58:29.421Z,82.37
2017-09-29T15:00:58.043Z,82.49
2017-09-29T15:03:26.697Z,82.47
2017-09-29T15:05:55.381Z,82.15
2017-09-29T15:08:24.008Z,82.19
2017-09-29T15:10:52.677Z,82.12
2017-09-29T15:13:21.418Z,82.19
2017-09-29T15:15:50.034Z,82.18
2017-09-29T15:18:18.775Z,82.32
2017-09-29T15:20:55.449Z,82.09
2017-09-29T15:23:24.101Z,81.98
2017-09-29T15:25:52.762Z,82.03
2017-09-29T15:28:21.420Z,81.97
2017-09-29T15:30:50.029Z,81.98
2017-09-29T15:33:18.872Z,82.07
2017-09-29T15:35:47.569Z,82.13
2017-09-29T15:38:16.180Z,82.17
2017-09-29T15:40:44.897Z,82.09
2017-09-29T15:43:13.514Z,82.04
2017-09-29T15:45:42.557Z,82.25
2017-09-29T15:48:11.238Z,82.13
2017-09-29T15:50:39.856Z,82.39
2017-09-29T15:53:08.508Z,82.18
2017-09-29T15:55:37.180Z,82.29
2017-09-29T15:58:05.801Z,82.19
2017-09-29T16:00:34.463Z,82.27
2017-09-29T16:03:02.956Z,82.30
2017-09-29T16:05:31.604Z,82.35
2017-09-29T16:08:00.224Z,82.31
2017-09-29T16:10:28.899Z,82.46
2017-09-29T16:12:57.508Z,82.50
2017-09-29T16:15:26.205Z,81.20
2017-09-29T16:17:54.840Z,81.85
2017-09-29T16:20:23.449Z,82.22
2017-09-29T16:22:52.121Z,82.50
2017-09-29T16:25:20.742Z,82.56
2017-09-29T16:27:49.394Z,82.43
2017-09-29T16:30:18.089Z,82.58
2017-09-29T16:32:46.714Z,82.94
2017-09-29T16:35:17.078Z,82.98
2017-09-29T16:37:45.761Z,83.05
2017-09-29T16:40:14.374Z,82.85
2017-09-29T16:42:43.053Z,82.86
2017-09-29T16:45:11.689Z,82.82
2017-09-29T16:47:40.331Z,82.95
2017-09-29T16:50:08.982Z,83.02
2017-09-29T16:52:37.637Z,82.84
2017-09-29T16:55:06.253Z,82.95
2017-09-29T16:57:34.905Z,82.78
2017-09-29T17:00:03.542Z,82.96
2017-09-29T17:02:32.221Z,83.05
2017-09-29T17:05:00.839Z,83.04
2017-09-29T17:07:29.454Z,83.25
2017-09-29T17:09:58.114Z,83.38
2017-09-29T17:12:26.792Z,83.52
2017-09-29T17:14:55.402Z,83.50
2017-09-29T17:17:24.061Z,83.48
2017-09-29T17:19:52.668Z,83.34
2017-09-29T17:22:21.333Z,83.35
2017-09-29T17:24:49.997Z,83.34
2017-09-29T17:27:18.661Z,83.30
2017-09-29T17:29:47.276Z,83.27
2017-09-29T17:32:15.936Z,83.46
2017-09-29T17:34:44.570Z,83.49
2017-09-29T17:37:13.239Z,83.64
2017-09-29T17:39:41.862Z,83.47
2017-09-29T17:42:10.478Z,83.50
2017-09-29T17:44:39.138Z,83.53
2017-09-29T17:47:07.762Z,83.53
2017-09-29T17:49:44.987Z,83.63
2017-09-29T17:52:13.589Z,83.75
2017-09-29T17:54:45.672Z,83.68
2017-09-29T17:57:14.296Z,83.82
2017-09-29T17:59:42.957Z,83.81
2017-09-29T18:02:11.461Z,83.80
2017-09-29T18:04:40.116Z,83.92
2017-09-29T18:07:08.739Z,83.90
2017-09-29T18:09:37.389Z,83.85
2017-09-29T18:12:06.001Z,83.97
2017-09-29T18:14:34.666Z,83.88
2017-09-29T18:17:03.652Z,83.75
2017-09-29T18:19:35.932Z,83.77
2017-09-29T18:22:17.671Z,83.93
2017-09-29T18:24:54.157Z,84.32
2017-09-29T18:27:27.759Z,84.17
2017-09-29T18:30:06.153Z,84.22
2017-09-29T18:32:46.298Z,84.42
2017-09-29T18:35:25.585Z,84.34
2017-09-29T18:38:05.385Z,84.31
2017-09-29T18:40:44.659Z,84.26
2017-09-29T18:43:23.037Z,84.34
2017-09-29T18:46:01.129Z,84.07
2017-09-29T18:48:32.800Z,84.14
2017-09-29T18:51:11.385Z,84.01
2017-09-29T18:53:48.454Z,84.03
2017-09-29T18:56:31.477Z,83.99
2017-09-29T18:59:24.204Z,84.07
2017-09-29T19:04:40.458Z,84.11
2017-09-29T19:07:19.305Z,84.05
2017-09-29T19:10:02.517Z,83.90
2017-09-29T19:12:46.237Z,83.89
2017-09-29T19:15:23.193Z,83.86
2017-09-29T19:17:58.392Z,83.77
2017-09-29T19:20:35.493Z,83.87
2017-09-29T19:23:13.191Z,83.80
2017-09-29T19:25:49.977Z,83.63
2017-09-29T19:28:23.444Z,83.65
2017-09-29T19:30:56.896Z,83.68
2017-09-29T19:33:34.260Z,83.66
2017-09-29T19:36:13.085Z,83.71
2017-09-29T19:38:51.765Z,83.78
2017-09-29T19:41:25.430Z,83.69
2017-09-29T19:44:00.303Z,83.66
2017-09-29T19:46:35.976Z,83.52
2017-09-29T19:49:11.593Z,83.61
2017-09-29T19:51:43.688Z,83.61
2017-09-29T19:54:20.593Z,83.57
2017-09-29T19:56:57.765Z,83.67
2017-09-29T19:59:38.355Z,83.50
2017-09-29T20:02:21.082Z,83.46
2017-09-29T20:04:56.633Z,83.56
2017-09-29T20:07:32.824Z,83.51
2017-09-29T20:10:07.187Z,83.56
2017-09-29T20:12:45.356Z,83.43
2017-09-29T20:15:21.223Z,83.44
2017-09-29T20:17:51.029Z,83.54
2017-09-29T20:20:19.681Z,83.50
2017-09-29T20:22:48.452Z,83.35
2017-09-29T20:25:18.055Z,83.42
2017-09-29T20:27:46.785Z,83.30
2017-09-29T20:30:15.390Z,83.27
2017-09-29T20:32:55.760Z,83.34
2017-09-29T20:35:34.917Z,83.33
2017-09-29T20:38:05.830Z,83.19
2017-09-29T20:40:34.497Z,83.22
2017-09-29T20:43:03.201Z,83.13
2017-09-29T20:45:33.142Z,83.13
2017-09-29T20:48:02.534Z,83.09
2017-09-29T20:50:36.491Z,83.10
2017-09-29T20:53:05.254Z,83.00
2017-09-29T20:55:44.912Z,83.04
2017-09-29T20:58:27.034Z,82.95
2017-09-29T21:01:07.024Z,82.93
2017-09-29T21:03:46.442Z,82.93
2017-09-29T21:06:23.721Z,82.88
2017-09-29T21:09:03.291Z,82.83
2017-09-29T21:11:47.136Z,82.78
2017-09-29T21:14:29.730Z,82.71
2017-09-29T21:17:09.128Z,82.69
2017-09-29T21:19:46.820Z,82.74
2017-09-29T21:22:29.177Z,82.88
2017-09-29T21:25:08.323Z,82.83
2017-09-29T21:27:37.517Z,82.82
2017-09-29T21:30:06.189Z,82.71
2017-09-29T21:32:34.847Z,82.77
2017-09-29T21:35:04.914Z,82.85
2017-09-29T21:37:33.578Z,82.70
2017-09-29T21:40:02.213Z,82.66
2017-09-29T21:42:35.154Z,82.69
2017-09-29T21:45:05.479Z,82.63
2017-09-29T21:47:34.364Z,82.58
2017-09-29T21:50:02.983Z,82.71
2017-09-29T21:52:31.603Z,82.54
2017-09-29T21:55:00.253Z,82.61
2017-09-29T21:57:28.885Z,82.64
2017-09-29T21:59:57.555Z,82.64
2017-09-29T22:02:26.219Z,82.51
2017-09-29T22:04:54.838Z,82.64
2017-09-29T22:07:23.494Z,82.80
2017-09-29T22:09:52.106Z,82.67
2017-09-29T22:12:20.780Z,82.66
2017-09-29T22:14:49.533Z,82.64
2017-09-29T22:17:18.202Z,82.64
2017-09-29T22:19:46.839Z,82.64
2017-09-29T22:22:15.615Z,82.52
2017-09-29T22:24:44.286Z,82.60
2017-09-29T22:27:12.911Z,82.62
2017-09-29T22:29:41.590Z,82.74
2017-09-29T22:32:10.242Z,82.77
2017-09-29T22:34:38.989Z,82.69
2017-09-29T22:37:07.651Z,82.62
2017-09-29T22:39:36.757Z,82.65
2017-09-29T22:42:05.366Z,82.63
2017-09-29T22:44:49.435Z,82.79
2017-09-29T22:47:24.506Z,82.78
2017-09-29T22:50:01.049Z,82.67
2017-09-29T22:52:32.883Z,82.64
2017-09-29T22:55:09.419Z,82.69
2017-09-29T22:57:44.211Z,82.71
2017-09-29T23:00:15.284Z,82.62
2017-09-29T23:02:46.435Z,82.62
2017-09-29T23:05:17.278Z,82.67
2017-09-29T23:07:47.789Z,82.71
2017-09-29T23:10:18.532Z,82.73
2017-09-29T23:12:49.263Z,82.68
2017-09-29T23:15:17.874Z,82.66
2017-09-29T23:17:46.563Z,82.79
2017-09-29T23:20:15.169Z,82.77
2017-09-29T23:22:43.772Z,82.78
2017-09-29T23:25:12.425Z,82.67
2017-09-29T23:27:41.037Z,82.77
2017-09-29T23:30:09.705Z,82.76
2017-09-29T23:32:38.362Z,82.74
2017-09-29T23:35:07.056Z,82.68
2017-09-29T23:37:35.714Z,82.73
2017-09-29T23:40:04.326Z,82.73
2017-09-29T23:42:32.985Z,82.77
2017-09-29T23:45:01.459Z,82.80
2017-09-29T23:47:30.063Z,82.80
2017-09-29T23:49:58.739Z,82.83
2017-09-29T23:52:27.366Z,82.88
2017-09-29T23:54:56.023Z,82.83
2017-09-29T23:57:24.645Z,82.78
2017-09-29T23:59:53.258Z,82.84
